aviador You're here:

PAPB Decoded Metar

POINT BARROW in AK, USA
Report Time2017-12-18 07:53:00
UTC Time2017-12-18 08:53:06
Flight Rules mvfr MVFR
Wind170° at 31 Gusting to 45 kt
W.Decomp.*RWY 11: 20.3 kt HW 23.4 kt RCW
W.Rank170° ranks 26
Current wind is above 170° avg. (13.8)
Visibility9999 m
Phenomena:N/A
Clouds:Scattered 021 Hf
Overcast 027 Hf
Expected CloudBase > 800 ft AGL from Temp-Dew spread
Ceiling2,700 ft
Temp04°C (ISA -11)
Dew Point02°C (87% RH)
AAT-8.8°C
QNH1007 hPa
Density Alt-889 ft
Elevation115 ft
Report Wrong Elevation
Raw Report
PAPB 180753Z AUTO 17031G45KT 9SM SCT021 OVC027 04/02 A2973 RMK AO2
PK WND 17049/0702 SLP056 T00440022 TSNO $=

Extra information for PAPB:More info

Metar Taf Metar & Taf Last 4 Metars F.Rules Stats Wind Profile Meteogram Temp Stats Airport Information Weather charts Add Link Nearby VenuesMetar ALERT Operation Metar Decoded Social comments

AIRNAV info for PAPB